Terminal Aerodrome Forecast
Issued by NWS

Home | Current Version | Previous Version | Text Only | Print | Product List | Glossary On
Versions: 1 2 3 4 5 6 7 8 9 10 11 12
905
FTUS43 KDLH 282337
TAFBRD
TAF
KBRD 282337Z 2900/2924 10007KT P6SM OVC080
     FM290600 VRB03KT P6SM BKN050
     FM291500 05008KT P6SM SCT050=

USA.gov is the U.S. government's official web portal to all federal, state and local government web resources and services.